createdAt,value
2016-04-21T11:37:03.496Z,13.5
2016-04-21T11:38:03.466Z,13.5
2016-04-21T11:39:04.673Z,13.48
2016-04-21T11:40:03.426Z,13.55
2016-04-21T11:41:03.429Z,13.5
2016-04-21T11:42:04.338Z,13.54
2016-04-21T11:43:04.652Z,13.68
2016-04-21T11:44:03.343Z,13.55
2016-04-21T11:45:04.315Z,13.51
2016-04-21T11:46:04.646Z,13.4
2016-04-21T11:47:03.257Z,13.47
2016-04-21T11:48:04.415Z,13.45
2016-04-21T11:49:04.528Z,13.47
2016-04-21T11:50:04.171Z,13.51
2016-04-21T11:51:04.409Z,13.53
2016-04-21T11:52:04.474Z,13.51
2016-04-21T11:53:04.101Z,13.51
2016-04-21T11:54:04.041Z,13.48
2016-04-21T11:55:03.356Z,13.53
2016-04-21T11:56:04.484Z,13.53
2016-04-21T11:57:04.347Z,13.57
2016-04-21T11:58:03.475Z,13.51
2016-04-21T11:59:04.414Z,13.55
2016-04-21T12:00:04.495Z,13.54
2016-04-21T12:01:04.560Z,13.57
2016-04-21T12:02:04.328Z,13.62
2016-04-21T12:03:04.128Z,13.7
2016-04-21T12:04:04.397Z,13.68
2016-04-21T12:05:04.165Z,13.72
2016-04-21T12:06:03.246Z,13.76
2016-04-21T12:07:04.514Z,13.78
2016-04-21T12:08:04.282Z,13.78
2016-04-21T12:09:04.222Z,13.76
2016-04-21T12:10:04.491Z,13.72
2016-04-21T12:11:03.196Z,13.65
2016-04-21T12:12:04.355Z,13.73
2016-04-21T12:13:03.233Z,13.78
2016-04-21T12:14:04.392Z,13.76
2016-04-21T12:15:04.238Z,13.78
2016-04-21T12:16:04.460Z,13.84
2016-04-21T12:17:04.401Z,13.88
2016-04-21T12:18:03.278Z,13.95
2016-04-21T12:19:03.437Z,13.83
2016-04-21T12:20:04.939Z,13.83
2016-04-21T12:21:03.207Z,13.84
2016-04-21T12:22:03.273Z,13.84
2016-04-21T12:23:04.384Z,13.86
2016-04-21T12:24:03.107Z,13.87
2016-04-21T12:25:03.562Z,13.88
2016-04-21T12:26:03.253Z,13.86
2016-04-21T12:27:04.052Z,13.97
2016-04-21T12:28:03.556Z,13.95
2016-04-21T12:29:03.104Z,14.05
2016-04-21T12:30:04.278Z,14.02
2016-04-21T12:31:03.219Z,13.95
2016-04-21T12:32:04.300Z,13.94
2016-04-21T12:33:04.334Z,13.94
2016-04-21T12:34:03.414Z,13.99
2016-04-21T12:35:04.714Z,13.97
2016-04-21T12:36:03.466Z,14.02
2016-04-21T12:37:03.766Z,13.99
2016-04-21T12:38:03.644Z,13.97
2016-04-21T12:39:04.178Z,14.05
2016-04-21T12:40:03.946Z,14.08
2016-04-21T12:41:03.980Z,14.05
2016-04-21T12:42:04.405Z,14.05
2016-04-21T12:43:04.158Z,14.11
2016-04-21T12:44:03.019Z,14.09
2016-04-21T12:45:03.194Z,14.08
2016-04-21T12:46:03.056Z,14.13
2016-04-21T12:47:04.574Z,14.16
2016-04-21T12:48:03.984Z,14.09
2016-04-21T12:49:04.329Z,14.13
2016-04-21T12:50:04.193Z,14.11
2016-04-21T12:51:04.101Z,14.19
2016-04-21T12:52:04.776Z,14.19
2016-04-21T12:53:04.060Z,14.16
2016-04-21T12:55:04.549Z,14.16
2016-04-21T12:56:02.958Z,14.16
2016-04-21T12:57:04.273Z,14.24
2016-04-21T12:58:04.448Z,14.3
2016-04-21T12:59:04.107Z,14.27
2016-04-21T13:00:04.642Z,14.27
2016-04-21T13:01:04.253Z,14.24
2016-04-21T13:02:02.990Z,14.26
2016-04-21T13:03:04.290Z,14.28
2016-04-21T13:05:03.763Z,14.3
2016-04-21T13:07:11.472Z,14.26
2016-04-21T13:08:03.288Z,14.26
2016-04-21T13:09:03.946Z,14.27
2016-04-21T13:10:04.230Z,14.31
2016-04-21T13:11:03.389Z,14.3
2016-04-21T13:12:03.252Z,14.34
2016-04-21T13:13:03.894Z,14.39
2016-04-21T13:14:04.553Z,14.42
2016-04-21T13:15:03.916Z,14.49
2016-04-21T13:16:03.199Z,14.49
2016-04-21T13:17:04.171Z,14.48
2016-04-21T13:18:04.033Z,14.6
2016-04-21T13:19:03.442Z,14.64
2016-04-21T13:20:05.288Z,14.7
2016-04-21T13:21:04.323Z,14.67
2016-04-21T13:22:03.451Z,14.7
2016-04-21T13:23:03.688Z,14.61
2016-04-21T13:24:04.487Z,14.69
2016-04-21T13:25:03.926Z,14.64
2016-04-21T13:26:02.867Z,14.61
2016-04-21T13:27:04.072Z,14.57
2016-04-21T13:28:03.373Z,14.66
2016-04-21T13:29:04.750Z,14.66
2016-04-21T13:30:11.940Z,14.63
2016-04-21T13:31:03.256Z,14.64
2016-04-21T13:32:04.118Z,14.63
2016-04-21T13:33:04.011Z,14.69
2016-04-21T13:34:03.983Z,14.61
2016-04-21T13:35:03.751Z,14.7
2016-04-21T13:36:03.784Z,14.66
2016-04-21T13:37:04.241Z,14.67
2016-04-21T13:38:02.836Z,14.63
2016-04-21T13:39:03.777Z,14.66
2016-04-21T13:40:04.108Z,14.66
2016-04-21T13:41:04.127Z,14.66
2016-04-21T13:42:04.145Z,14.67
2016-04-21T13:43:04.803Z,14.7
2016-04-21T13:44:03.040Z,14.85
2016-04-21T13:45:03.889Z,14.69
2016-04-21T13:46:04.204Z,14.71
2016-04-21T13:47:03.926Z,14.64
2016-04-21T13:48:04.023Z,14.75
2016-04-21T13:49:03.354Z,14.66
2016-04-21T13:50:03.106Z,14.79
2016-04-21T13:51:03.811Z,14.74
2016-04-21T13:52:02.939Z,14.85
2016-04-21T13:53:04.176Z,14.8
2016-04-21T13:54:02.944Z,14.75
2016-04-21T13:55:02.822Z,14.74
2016-04-21T13:56:02.903Z,14.85
2016-04-21T13:57:02.640Z,14.71
2016-04-21T13:58:03.986Z,14.74
2016-04-21T13:59:03.848Z,14.74
2016-04-21T14:00:12.038Z,14.7
2016-04-21T14:01:03.729Z,14.7
2016-04-21T14:02:04.185Z,14.7
2016-04-21T14:03:03.766Z,14.79
2016-04-21T14:04:04.010Z,14.71
2016-04-21T14:05:04.059Z,14.86
2016-04-21T14:06:03.779Z,14.83
2016-04-21T14:07:04.345Z,14.86
2016-04-21T14:08:03.035Z,14.93
2016-04-21T14:09:03.726Z,14.9
2016-04-21T14:10:04.026Z,14.86
2016-04-21T14:12:03.812Z,14.8
2016-04-21T14:13:04.283Z,14.8
2016-04-21T14:14:03.052Z,15.02
2016-04-21T14:15:03.804Z,15.01
2016-04-21T14:16:03.885Z,14.95
2016-04-21T14:17:02.716Z,15.08
2016-04-21T14:18:03.594Z,15.1
2016-04-21T14:19:03.769Z,15.02
2016-04-21T14:20:03.599Z,15.15
2016-04-21T14:21:03.618Z,15
2016-04-21T14:22:03.073Z,15
2016-04-21T14:23:03.695Z,15.08
2016-04-21T14:24:02.651Z,15.05
2016-04-21T14:25:02.763Z,15.1
2016-04-21T14:26:03.421Z,15.07
2016-04-21T14:27:03.441Z,14.95
2016-04-21T14:28:03.552Z,15
2016-04-21T14:29:02.634Z,15.02
2016-04-21T14:30:02.480Z,15.07
2016-04-21T14:31:02.607Z,15.08
2016-04-21T14:32:02.954Z,15.1
2016-04-21T14:33:02.363Z,15.08
2016-04-21T14:34:02.537Z,15.19
2016-04-21T14:35:02.696Z,15.05
2016-04-21T14:36:02.652Z,15.07
2016-04-21T14:37:02.780Z,15.04
2016-04-21T14:38:04.095Z,15.04
2016-04-21T14:39:02.598Z,15.01
2016-04-21T14:40:02.475Z,15.02
2016-04-21T14:41:02.493Z,15.04
2016-04-21T14:42:03.950Z,15.01
2016-04-21T14:43:02.655Z,15.07
2016-04-21T14:44:02.861Z,15.07
2016-04-21T14:45:02.567Z,15.05
2016-04-21T14:46:02.522Z,15.01
2016-04-21T14:47:02.650Z,15.07
2016-04-21T14:48:03.591Z,14.98
2016-04-21T14:49:02.547Z,15.05
2016-04-21T14:50:02.533Z,15.05
2016-04-21T14:51:02.646Z,14.98
2016-04-21T14:52:02.664Z,14.94
2016-04-21T14:53:02.666Z,14.9
2016-04-21T14:54:02.637Z,14.95
2016-04-21T14:56:03.487Z,14.83
2016-04-21T14:57:03.505Z,14.86
2016-04-21T14:58:03.946Z,14.87
2016-04-21T14:59:04.058Z,14.9
2016-04-21T15:00:03.545Z,14.93
2016-04-21T15:01:03.469Z,14.94
2016-04-21T15:02:02.957Z,14.9
2016-04-21T15:03:02.521Z,14.8
2016-04-21T15:04:02.618Z,14.85
2016-04-21T15:05:02.434Z,14.83
2016-04-21T15:06:03.498Z,14.79
2016-04-21T15:07:03.736Z,14.63
2016-04-21T15:08:03.425Z,14.7
2016-04-21T15:09:03.584Z,14.64
2016-04-21T15:10:03.572Z,14.67
2016-04-21T15:11:03.793Z,14.71
2016-04-21T15:12:03.436Z,14.66
2016-04-21T15:13:04.017Z,14.64
2016-04-21T15:14:11.973Z,14.7
2016-04-21T15:15:05.741Z,14.71
2016-04-21T15:16:02.760Z,14.74
2016-04-21T15:17:03.480Z,14.87
2016-04-21T15:18:04.811Z,14.87
2016-04-21T15:19:03.611Z,14.86
2016-04-21T15:20:03.458Z,14.86
2016-04-21T15:21:03.382Z,14.9
2016-04-21T15:22:03.479Z,14.98
2016-04-21T15:23:03.810Z,14.94
2016-04-21T15:24:02.187Z,14.95
2016-04-21T15:25:03.159Z,14.93
2016-04-21T15:26:03.708Z,15
2016-04-21T15:27:02.352Z,14.87
2016-04-21T15:28:03.495Z,14.82
2016-04-21T15:29:03.732Z,14.83
2016-04-21T15:30:03.391Z,14.79
2016-04-21T15:31:02.629Z,14.85
2016-04-21T15:32:02.412Z,14.82
2016-04-21T15:33:03.445Z,14.9
2016-04-21T15:34:02.652Z,14.83
2016-04-21T15:35:03.342Z,14.83
2016-04-21T15:36:03.220Z,14.87
2016-04-21T15:37:02.457Z,14.82
2016-04-21T15:38:02.959Z,14.8
2016-04-21T15:39:03.634Z,14.85
2016-04-21T15:40:03.121Z,14.75
2016-04-21T15:41:02.562Z,14.71
2016-04-21T15:42:03.408Z,14.69
2016-04-21T15:43:02.723Z,14.74
2016-04-21T15:44:03.319Z,14.67
2016-04-21T15:45:03.603Z,14.49
2016-04-21T15:46:03.309Z,14.51
2016-04-21T15:47:03.124Z,14.49
2016-04-21T15:48:03.533Z,14.46
2016-04-21T15:49:02.614Z,14.49
2016-04-21T15:50:03.304Z,14.51
2016-04-21T15:51:03.557Z,14.44
2016-04-21T15:52:03.341Z,14.46
2016-04-21T15:53:03.297Z,14.49
2016-04-21T15:54:02.252Z,14.51
2016-04-21T15:55:03.458Z,14.44
2016-04-21T15:56:03.477Z,14.49
2016-04-21T15:57:03.542Z,14.53
2016-04-21T15:58:02.544Z,14.49
2016-04-21T15:59:02.344Z,14.49
2016-04-21T16:00:03.347Z,14.49
2016-04-21T16:01:02.349Z,14.48
2016-04-21T16:02:03.555Z,14.46
2016-04-21T16:04:02.249Z,14.59
2016-04-21T16:05:03.204Z,14.45
2016-04-21T16:06:02.332Z,14.53
2016-04-21T16:07:02.568Z,14.48
2016-04-21T16:08:03.306Z,14.51
2016-04-21T16:09:03.230Z,14.49
2016-04-21T16:10:02.498Z,14.48
2016-04-21T16:11:03.548Z,14.57
2016-04-21T16:12:03.488Z,14.49
2016-04-21T16:14:03.275Z,14.56
2016-04-21T16:15:02.325Z,14.51
2016-04-21T16:16:02.311Z,14.48
2016-04-21T16:17:03.361Z,14.46
2016-04-21T16:18:03.208Z,14.44
2016-04-21T16:19:02.398Z,14.51
2016-04-21T16:20:03.261Z,14.44
2016-04-21T16:21:03.278Z,14.41
2016-04-21T16:22:03.265Z,14.33
2016-04-21T16:23:03.330Z,14.26
2016-04-21T16:24:02.239Z,14.23
2016-04-21T16:25:03.132Z,14.3
2016-04-21T16:26:03.494Z,14.33
2016-04-21T16:27:03.482Z,14.24
2016-04-21T16:28:03.329Z,14.26
2016-04-21T16:29:03.424Z,14.27
2016-04-21T16:30:02.974Z,14.28
2016-04-21T16:31:02.274Z,14.24
2016-04-21T16:32:02.558Z,14.24
2016-04-21T16:33:03.107Z,14.23
2016-04-21T16:34:03.298Z,14.27
2016-04-21T16:35:04.660Z,14.36
2016-04-21T16:36:11.038Z,14.39
2016-04-21T16:37:02.103Z,14.3
2016-04-21T16:38:02.168Z,14.28
2016-04-21T16:39:03.186Z,14.27
2016-04-21T16:40:02.126Z,14.3
2016-04-21T16:41:02.222Z,14.27
2016-04-21T16:42:03.382Z,14.27
2016-04-21T16:43:03.087Z,14.13
2016-04-21T16:44:02.106Z,14.23
2016-04-21T16:45:02.092Z,14.09
2016-04-21T16:46:11.064Z,14.08
2016-04-21T16:47:02.801Z,14.15
2016-04-21T16:48:03.273Z,14.11
2016-04-21T16:49:02.431Z,14.09
2016-04-21T16:50:02.075Z,14.08
2016-04-21T16:51:03.094Z,14.13
2016-04-21T16:52:02.159Z,14.06
2016-04-21T16:53:02.286Z,14.13
2016-04-21T16:54:02.086Z,14.09
2016-04-21T16:55:02.838Z,14.05
2016-04-21T16:56:02.138Z,14.09
2016-04-21T16:57:02.016Z,14.06
2016-04-21T16:58:02.846Z,14.03
2016-04-21T16:59:02.771Z,13.97
2016-04-21T17:00:02.977Z,13.93
2016-04-21T17:01:02.464Z,13.81
2016-04-21T17:02:04.716Z,13.87
2016-04-21T17:03:03.204Z,13.87
2016-04-21T17:04:03.004Z,13.81
2016-04-21T17:05:02.271Z,13.93
2016-04-21T17:06:02.931Z,13.81
2016-04-21T17:07:02.965Z,13.79
2016-04-21T17:08:13.093Z,13.84
2016-04-21T17:09:02.095Z,13.72
2016-04-21T17:10:02.067Z,13.72
2016-04-21T17:11:03.007Z,13.73
2016-04-21T17:12:03.134Z,13.6
2016-04-21T17:13:02.730Z,13.65
2016-04-21T17:14:01.952Z,13.58
2016-04-21T17:15:02.845Z,13.54
2016-04-21T17:16:03.145Z,13.55
2016-04-21T17:17:02.006Z,13.53
2016-04-21T17:18:03.056Z,13.51
2016-04-21T17:19:03.216Z,13.54
2016-04-21T17:20:02.500Z,13.5
2016-04-21T17:21:01.892Z,13.48
2016-04-21T17:22:03.052Z,13.51
2016-04-21T17:23:02.945Z,13.47
2016-04-21T17:24:02.276Z,13.53
2016-04-21T17:26:01.797Z,13.44
2016-04-21T17:27:03.003Z,13.5
2016-04-21T17:28:01.896Z,13.44
2016-04-21T17:29:02.977Z,13.44
2016-04-21T17:30:02.870Z,13.54
2016-04-21T17:31:01.888Z,13.48
2016-04-21T17:32:02.001Z,13.44
2016-04-21T17:33:01.644Z,13.39
2016-04-21T17:34:01.599Z,13.35
2016-04-21T17:35:01.680Z,13.37
2016-04-21T17:36:01.621Z,13.36
2016-04-21T17:37:01.717Z,13.19
2016-04-21T17:38:01.813Z,13.28
2016-04-21T17:39:01.645Z,13.13
2016-04-21T17:40:01.679Z,12.96
2016-04-21T17:41:01.775Z,12.96
2016-04-21T17:42:01.668Z,12.88
2016-04-21T17:43:01.562Z,12.84
2016-04-21T17:44:01.626Z,12.78
2016-04-21T17:45:02.911Z,12.74
2016-04-21T17:46:15.303Z,12.62
2016-04-21T17:47:01.948Z,12.59
2016-04-21T17:48:02.731Z,12.61
2016-04-21T17:49:02.609Z,12.53
2016-04-21T17:50:02.892Z,12.37
2016-04-21T17:51:10.942Z,12.28
2016-04-21T17:52:02.976Z,12.28
2016-04-21T17:53:02.791Z,12.15
2016-04-21T17:54:02.794Z,12.07
2016-04-21T17:55:02.891Z,12.11
2016-04-21T17:56:02.908Z,12
2016-04-21T17:57:02.724Z,11.91
2016-04-21T17:58:01.742Z,11.84
2016-04-21T17:59:01.916Z,11.67
2016-04-21T18:00:02.733Z,11.56
2016-04-21T18:01:02.625Z,11.39
2016-04-21T18:02:02.784Z,11.26
2016-04-21T18:03:02.741Z,11.02
2016-04-21T18:04:02.713Z,10.91
2016-04-21T18:05:03.138Z,10.65
2016-04-21T18:06:02.985Z,10.55
2016-04-21T18:07:01.878Z,10.41
2016-04-21T18:08:01.771Z,10.26
2016-04-21T18:09:02.524Z,10.1
2016-04-21T18:10:03.354Z,10.05
2016-04-21T18:11:02.232Z,9.89
2016-04-21T18:12:02.579Z,9.78
2016-04-21T18:13:02.567Z,9.67
2016-04-21T18:14:01.678Z,9.6
2016-04-21T18:15:02.821Z,9.53
2016-04-21T18:16:02.653Z,9.35
2016-04-21T18:17:02.690Z,9.3
2016-04-21T18:18:02.521Z,9.19
2016-04-21T18:19:01.929Z,9.08
2016-04-21T18:20:02.588Z,9
2016-04-21T18:21:03.091Z,8.98
2016-04-21T18:22:03.376Z,8.83
2016-04-21T18:24:02.475Z,8.65
2016-04-21T18:25:02.493Z,8.62
2016-04-21T18:26:03.043Z,8.54
2016-04-21T18:27:01.437Z,8.44
2016-04-21T18:28:02.642Z,8.34
2016-04-21T18:29:09.988Z,8.25
2016-04-21T18:31:01.573Z,8.17
2016-04-21T18:32:01.465Z,8.03
2016-04-21T18:33:02.499Z,8.13
2016-04-21T18:34:02.549Z,8.07
2016-04-21T18:35:01.473Z,7.91
2016-04-21T18:36:01.539Z,7.83
2016-04-21T18:37:01.807Z,7.77
2016-04-21T18:38:01.467Z,7.78
2016-04-21T18:39:02.359Z,7.63
2016-04-21T18:40:01.565Z,7.59
2016-04-21T18:41:01.568Z,7.63
2016-04-21T18:42:02.602Z,7.52
2016-04-21T18:43:01.730Z,7.52
2016-04-21T18:44:02.108Z,7.52
2016-04-21T18:45:02.564Z,7.45
2016-04-21T18:46:01.548Z,7.36
2016-04-21T18:47:02.756Z,7.31
2016-04-21T18:48:01.366Z,7.33
2016-04-21T18:49:01.759Z,7.22
2016-04-21T18:50:02.449Z,7.13
2016-04-21T18:52:01.752Z,7.09
2016-04-21T18:53:01.380Z,7.08
2016-04-21T18:54:01.444Z,6.98
2016-04-21T18:55:32.091Z,6.83
2016-04-21T18:56:02.513Z,6.85
2016-04-21T18:57:01.344Z,6.78
2016-04-21T18:58:02.079Z,6.8
2016-04-21T18:59:02.316Z,6.64
2016-04-21T19:00:02.163Z,6.61
2016-04-21T19:01:11.091Z,6.62
2016-04-21T19:02:12.437Z,6.52
2016-04-21T19:03:02.406Z,6.51
2016-04-21T19:04:02.335Z,6.6
2016-04-21T19:05:02.198Z,6.47
2016-04-21T19:06:02.184Z,6.46
2016-04-21T19:07:02.359Z,6.47
2016-04-21T19:08:02.392Z,6.46
2016-04-21T19:09:02.458Z,6.52
2016-04-21T19:10:02.336Z,6.44
2016-04-21T19:11:02.745Z,6.46
2016-04-21T19:12:02.403Z,6.42
2016-04-21T19:13:02.078Z,6.37
2016-04-21T19:14:02.284Z,6.25
2016-04-21T19:15:02.100Z,6.28
2016-04-21T19:16:02.320Z,6.2
2016-04-21T19:17:02.439Z,6.24
2016-04-21T19:18:02.371Z,6.18
2016-04-21T19:19:02.679Z,6.13
2016-04-21T19:20:02.439Z,6.17
2016-04-21T19:21:02.387Z,6.13
2016-04-21T19:22:01.957Z,6.1
2016-04-21T19:23:02.229Z,6.15
2016-04-21T19:24:02.214Z,6.05
2016-04-21T19:25:01.387Z,6.1
2016-04-21T19:26:02.904Z,5.98
2016-04-21T19:27:02.061Z,5.96
2016-04-21T19:28:01.240Z,5.92
2016-04-21T19:29:01.248Z,5.95
2016-04-21T19:30:01.303Z,5.88
2016-04-21T19:31:01.247Z,5.82
2016-04-21T19:32:01.552Z,5.7
2016-04-21T19:33:03.025Z,5.66
2016-04-21T19:34:02.233Z,5.62
2016-04-21T19:35:01.409Z,5.6
2016-04-21T19:36:03.211Z,5.6
2016-04-21T19:37:02.637Z,5.54
2016-04-21T19:38:02.014Z,5.48
2016-04-21T19:39:02.471Z,5.41
2016-04-21T19:40:10.384Z,5.37
2016-04-21T19:41:08.214Z,5.42
2016-04-21T19:42:02.386Z,5.36
2016-04-21T19:43:01.202Z,5.36
2016-04-21T19:44:01.174Z,5.31
2016-04-21T19:45:01.896Z,5.28
2016-04-21T19:46:02.321Z,5.24
2016-04-21T19:47:02.183Z,5.27
2016-04-21T19:49:02.126Z,5.21
2016-04-21T19:50:02.191Z,5.16
2016-04-21T19:51:01.991Z,5.18
2016-04-21T19:52:02.291Z,5.13
2016-04-21T19:53:01.949Z,5.1
2016-04-21T19:54:02.311Z,5.15
2016-04-21T19:55:01.924Z,5.21
2016-04-21T19:56:01.395Z,5.12
2016-04-21T19:57:01.693Z,5.13
2016-04-21T19:58:01.290Z,5.15
2016-04-21T19:59:02.872Z,5.09
2016-04-21T20:00:01.968Z,5.09
2016-04-21T20:01:29.661Z,5.1
2016-04-21T20:02:50.070Z,5.08
2016-04-21T20:04:27.154Z,5.03
2016-04-21T20:05:45.734Z,5.05
2016-04-21T20:07:04.986Z,5.05
2016-04-21T20:08:24.055Z,4.95
2016-04-21T20:09:45.276Z,4.95
2016-04-21T20:10:55.498Z,4.94
2016-04-21T20:12:18.674Z,4.94
2016-04-21T20:13:28.147Z,4.92
2016-04-21T20:14:26.055Z,4.95
2016-04-21T20:15:51.292Z,4.9
2016-04-21T20:17:14.079Z,4.94
2016-04-21T20:18:37.628Z,4.95
2016-04-21T20:19:57.194Z,4.92
2016-04-21T20:21:18.403Z,5.02
2016-04-21T20:22:38.218Z,5.05
2016-04-21T20:23:48.517Z,5.05
2016-04-21T20:25:07.583Z,5.05
2016-04-21T20:26:26.775Z,5.09
2016-04-21T20:27:48.074Z,5.02
2016-04-21T20:29:06.484Z,5.02
2016-04-21T20:30:29.114Z,5
2016-04-21T20:31:03.957Z,4.98
2016-04-21T20:32:05.273Z,4.92
2016-04-21T20:33:05.323Z,4.88
2016-04-21T20:34:05.248Z,4.9
2016-04-21T20:35:05.218Z,4.84
2016-04-21T20:36:05.267Z,4.75
2016-04-21T20:37:05.364Z,4.74
2016-04-21T20:38:04.101Z,4.66
2016-04-21T20:39:04.072Z,4.74
2016-04-21T20:40:04.169Z,4.71
2016-04-21T20:41:05.000Z,4.69
2016-04-21T20:42:03.925Z,4.66
2016-04-21T20:43:04.114Z,4.6
2016-04-21T20:44:03.977Z,4.58
2016-04-21T20:45:04.011Z,4.54
2016-04-21T20:46:04.108Z,4.48
2016-04-21T20:47:03.986Z,4.46
2016-04-21T20:48:03.925Z,4.53
2016-04-21T20:49:04.130Z,4.51
2016-04-21T20:50:13.324Z,4.51
2016-04-21T20:51:04.933Z,4.46
2016-04-21T20:52:04.046Z,4.47
2016-04-21T20:53:03.891Z,4.54
2016-04-21T20:54:04.302Z,4.47
2016-04-21T20:55:04.225Z,4.46
2016-04-21T20:56:03.900Z,4.53
2016-04-21T20:57:05.028Z,4.54
2016-04-21T20:59:04.110Z,4.5
2016-04-21T21:00:04.146Z,4.54
2016-04-21T21:01:05.116Z,4.5
2016-04-21T21:02:04.915Z,4.5
2016-04-21T21:03:03.871Z,4.51
2016-04-21T21:04:03.828Z,4.46
2016-04-21T21:05:04.565Z,4.61
2016-04-21T21:06:04.864Z,4.57
2016-04-21T21:07:04.742Z,4.57
2016-04-21T21:08:03.792Z,4.58
2016-04-21T21:09:04.106Z,4.64
2016-04-21T21:10:03.719Z,4.72
2016-04-21T21:11:05.081Z,4.69
2016-04-21T21:12:04.959Z,4.66
2016-04-21T21:13:15.339Z,4.71
2016-04-21T21:14:05.120Z,4.66
2016-04-21T21:15:04.561Z,4.69
2016-04-21T21:16:04.531Z,4.65
2016-04-21T21:17:03.644Z,4.72
2016-04-21T21:18:04.631Z,4.68
2016-04-21T21:19:04.509Z,4.69
2016-04-21T21:20:05.136Z,4.65
2016-04-21T21:21:04.452Z,4.66
2016-04-21T21:22:04.845Z,4.46
2016-04-21T21:23:04.505Z,4.56
2016-04-21T21:24:04.725Z,4.57
2016-04-21T21:25:04.619Z,4.48
2016-04-21T21:27:04.827Z,4.32
2016-04-21T21:28:04.548Z,4.36
2016-04-21T21:29:03.691Z,4.26
2016-04-21T21:30:04.851Z,4.32
2016-04-21T21:31:04.729Z,4.24
2016-04-21T21:32:06.184Z,4.2
2016-04-21T21:33:04.734Z,4.15
2016-04-21T21:34:04.580Z,4.1
2016-04-21T21:35:04.974Z,4.04
2016-04-21T21:36:03.445Z,4.07
2016-04-21T21:37:04.385Z,4.03
2016-04-21T21:38:03.529Z,3.97
2016-04-21T21:39:03.640Z,3.92
2016-04-21T21:40:03.518Z,3.97
2016-04-21T21:41:04.131Z,3.82
2016-04-21T21:42:04.211Z,3.86
2016-04-21T21:43:04.011Z,3.82
2016-04-21T21:44:03.325Z,3.76
2016-04-21T21:45:03.281Z,3.82
2016-04-21T21:46:03.394Z,3.67
2016-04-21T21:47:04.412Z,3.64
2016-04-21T21:48:37.245Z,3.76
2016-04-21T21:50:07.795Z,3.67
2016-04-21T21:51:54.285Z,3.57
2016-04-21T21:53:33.400Z,3.53
2016-04-21T21:55:20.561Z,3.49
2016-04-21T21:56:50.267Z,3.49
2016-04-21T21:58:28.538Z,3.53
2016-04-21T22:00:09.462Z,3.46
2016-04-21T22:01:42.655Z,3.45
2016-04-21T22:03:26.974Z,3.43
2016-04-21T22:05:00.507Z,3.43
2016-04-21T22:06:37.529Z,3.45
2016-04-21T22:08:10.984Z,3.42
2016-04-21T22:09:31.349Z,3.46
2016-04-21T22:11:01.462Z,3.35
2016-04-21T22:12:41.201Z,3.21
2016-04-21T22:14:23.815Z,3.24
2016-04-21T22:16:05.083Z,3.24
2016-04-21T22:17:45.948Z,3.19
2016-04-21T22:18:27.373Z,3.2
2016-04-21T22:19:18.298Z,3.11
2016-04-21T22:20:18.613Z,3.2
2016-04-21T22:21:19.412Z,3.21
2016-04-21T22:22:19.305Z,3.2
2016-04-21T22:23:26.355Z,3.21
2016-04-21T22:24:28.389Z,3.19
2016-04-21T22:26:18.035Z,3.19
2016-04-21T22:27:19.241Z,3.23
2016-04-21T22:28:18.166Z,3.21
2016-04-21T22:29:18.027Z,3.24
2016-04-21T22:30:19.140Z,3.23
2016-04-21T22:31:18.065Z,3.21
2016-04-21T22:32:19.333Z,3.09
2016-04-21T22:33:19.163Z,3.05
2016-04-21T22:34:18.510Z,3.16
2016-04-21T22:35:18.746Z,3.2
2016-04-21T22:36:18.921Z,3.19
2016-04-21T22:37:17.956Z,3.21
2016-04-21T22:39:19.665Z,3.23
2016-04-21T22:41:31.810Z,3.19
2016-04-21T22:42:17.844Z,3.19
2016-04-21T22:43:19.175Z,3.21
2016-04-21T22:45:19.117Z,3.21
2016-04-21T22:46:26.386Z,3.14
2016-04-21T22:47:18.842Z,3.19
2016-04-21T22:48:17.767Z,3.16
2016-04-21T22:49:18.488Z,3.2
2016-04-21T22:50:18.053Z,3.2
2016-04-21T22:51:17.649Z,3.21
2016-04-21T22:52:19.480Z,3.14
2016-04-21T22:53:18.014Z,3.14
2016-04-21T22:54:18.829Z,3.06
2016-04-21T22:55:28.238Z,3.06
2016-04-21T22:56:17.522Z,3.02
2016-04-21T22:58:18.762Z,3.05
2016-04-21T22:59:18.593Z,3.14
2016-04-21T23:00:17.860Z,3.05
2016-04-21T23:01:18.785Z,3.05
2016-04-21T23:02:27.413Z,3.09
2016-04-21T23:03:26.401Z,3.03
2016-04-21T23:04:18.028Z,3.05
2016-04-21T23:05:18.515Z,3.09
2016-04-21T23:06:18.440Z,2.95
2016-04-21T23:07:18.567Z,2.96
2016-04-21T23:09:19.995Z,3.02
2016-04-21T23:10:18.544Z,2.9
2016-04-21T23:11:17.703Z,2.87
2016-04-21T23:12:18.471Z,2.93
2016-04-21T23:13:18.677Z,2.9
2016-04-21T23:14:18.414Z,2.85
2016-04-21T23:15:18.637Z,2.9
2016-04-21T23:16:19.294Z,2.84
2016-04-21T23:17:18.422Z,2.83
2016-04-21T23:18:18.644Z,2.8
2016-04-21T23:19:18.850Z,2.8
2016-04-21T23:20:18.181Z,2.76
2016-04-21T23:21:17.184Z,2.8
2016-04-21T23:22:18.405Z,2.84
2016-04-21T23:23:19.111Z,2.72
2016-04-21T23:24:18.425Z,2.72
2016-04-21T23:25:18.006Z,2.7
2016-04-21T23:26:18.665Z,2.72
2016-04-21T23:27:19.308Z,2.67
2016-04-21T23:28:27.155Z,2.73
2016-04-21T23:29:17.221Z,2.7
2016-04-21T23:30:17.426Z,2.78
2016-04-21T23:31:17.147Z,2.8
2016-04-21T23:32:18.541Z,2.76
2016-04-21T23:33:17.449Z,2.83
2016-04-21T23:35:17.971Z,2.83
2016-04-21T23:36:17.035Z,2.85
2016-04-21T23:37:17.429Z,2.84
2016-04-21T23:38:17.229Z,2.9
2016-04-21T23:39:17.013Z,2.87
2016-04-21T23:40:18.250Z,2.78
2016-04-21T23:41:27.284Z,2.81
2016-04-21T23:42:18.084Z,2.9
2016-04-21T23:43:18.054Z,2.83
2016-04-21T23:44:17.261Z,2.88
2016-04-21T23:45:18.217Z,2.83
2016-04-21T23:46:17.954Z,2.85
2016-04-21T23:47:19.284Z,2.77
2016-04-21T23:48:17.865Z,2.73
2016-04-21T23:49:17.853Z,2.9
2016-04-21T23:50:18.153Z,2.8
2016-04-21T23:51:17.623Z,2.84
2016-04-21T23:52:16.845Z,2.81
2016-04-21T23:53:17.101Z,2.69
2016-04-21T23:54:18.327Z,2.62
2016-04-21T23:55:17.298Z,2.59
2016-04-21T23:56:16.556Z,2.58
2016-04-21T23:57:16.590Z,2.55
2016-04-21T23:59:16.049Z,2.52
